Terminal Aerodrome Forecast
Issued by NWS Pendleton, OR

Home | Current Version | Previous Version | Text Only | Print | Product List | Glossary On
Versions: 1 2 3 4 5 6 7 8 9 10 11 12 13 14 15 16 17 18 19
000
FTUS46 KPDT 051137
TAFPDT
TAF
KPDT 051137Z 0512/0612 17004KT P6SM VCSH SCT080 BKN120
     FM051600 26006KT P6SM SCT070 BKN150
     FM052000 34008KT P6SM -SHRA SCT060 BKN090
      TEMPO 0522/0601 -TSRA BKN060CB OVC090
     FM060400 14007KT P6SM VCSH SCT060 OVC090=

USA.gov is the U.S. government's official web portal to all federal, state and local government web resources and services.